Time;durP1;ratioP1;P1;durP2;ratioP2;P2;SDS_P1;SDS_P2;PMS_P1;PMS_P2;Temp;Humidity;BMP_temperature;BMP_pressure;BME280_temperature;BME280_humidity;BME280_pressure;Samples;Min_cycle;Max_cycle;Signal;HPM_P1;HPM_P2
2022/09/14 08:52:30;;;;;;;8.57;1.33;;;17.30;99.90;;;;;;5120060;27;20344;-80
2022/09/14 08:54:59;;;;;;;3.85;1.38;;;17.50;99.90;;;;;;5105522;28;20043;-80
2022/09/14 08:57:32;;;;;;;4.55;1.02;;;17.60;99.90;;;;;;5105454;28;20040;-80
2022/09/14 09:00:07;;;;;;;5.95;1.15;;;17.70;99.90;;;;;;5106332;28;20028;-81
2022/09/14 09:02:47;;;;;;;4.28;1.10;;;17.80;99.90;;;;;;5109842;28;20505;-80
2022/09/14 09:05:41;;;;;;;6.68;1.20;;;18.00;99.90;;;;;;5110507;28;20076;-80
2022/09/14 09:08:21;;;;;;;4.82;1.23;;;18.20;99.90;;;;;;5111467;28;20082;-80
2022/09/14 09:10:49;;;;;;;4.95;1.33;;;18.50;99.90;;;;;;5110405;28;20078;-81
2022/09/14 09:13:18;;;;;;;4.38;1.23;;;18.70;99.90;;;;;;5108680;28;20032;-79
2022/09/14 09:15:53;;;;;;;6.35;1.10;;;18.70;99.90;;;;;;5092682;28;20031;-79
2022/09/14 09:18:24;;;;;;;6.20;1.20;;;18.70;99.90;;;;;;5108942;28;20072;-79
2022/09/14 09:20:54;;;;;;;10.32;1.63;;;18.60;99.90;;;;;;5108752;28;20044;-79
2022/09/14 09:23:22;;;;;;;6.07;1.23;;;18.50;99.90;;;;;;5091841;28;20044;-80
2022/09/14 09:26:05;;;;;;;5.35;1.10;;;18.50;99.90;;;;;;5092933;28;20031;-79
2022/09/14 09:28:31;;;;;;;4.82;0.90;;;18.50;99.90;;;;;;5109247;28;20047;-80
2022/09/14 09:31:03;;;;;;;5.88;1.00;;;18.60;99.90;;;;;;5107936;28;20085;-80
2022/09/14 09:33:29;;;;;;;5.13;1.10;;;18.80;99.90;;;;;;5109227;28;20043;-80
2022/09/14 09:35:55;;;;;;;6.40;1.17;;;19.20;99.90;;;;;;5104462;28;20036;-79
2022/09/14 09:38:26;;;;;;;5.90;1.33;;;19.30;99.90;;;;;;5108479;28;20166;-78
2022/09/14 09:41:03;;;;;;;4.00;0.80;;;19.40;99.90;;;;;;5104147;28;20439;-77
2022/09/14 09:43:28;;;;;;;6.32;1.10;;;19.50;99.90;;;;;;5091102;28;20177;-79
2022/09/14 09:45:58;;;;;;;4.07;0.90;;;19.60;99.90;;;;;;5107441;28;20500;-79
2022/09/14 09:48:38;;;;;;;6.40;1.08;;;19.60;99.90;;;;;;5106981;28;20043;-78
2022/09/14 09:51:08;;;;;;;5.35;1.20;;;19.60;99.90;;;;;;5106855;28;20036;-78
2022/09/14 09:53:44;;;;;;;4.57;1.00;;;19.50;99.90;;;;;;5107704;28;20392;-79
2022/09/14 09:56:19;;;;;;;4.82;1.02;;;19.50;99.90;;;;;;5107196;28;20032;-79
2022/09/14 09:58:50;;;;;;;6.47;1.00;;;19.50;99.90;;;;;;5106703;28;20032;-79
2022/09/14 10:01:21;;;;;;;4.90;0.90;;;19.50;99.90;;;;;;5107097;28;20265;-79
2022/09/14 10:04:15;;;;;;;4.25;0.88;;;19.50;99.90;;;;;;5082929;28;20048;-78
2022/09/14 10:06:44;;;;;;;5.68;0.80;;;19.60;99.90;;;;;;5080460;28;20516;-78
2022/09/14 10:09:18;;;;;;;2.90;0.85;;;19.70;99.90;;;;;;5094243;28;20501;-78
2022/09/14 10:11:45;;;;;;;5.63;0.82;;;19.70;99.90;;;;;;5093482;28;20067;-79
2022/09/14 10:14:24;;;;;;;6.25;0.93;;;19.80;99.90;;;;;;5094682;28;20091;-78
2022/09/14 10:16:50;;;;;;;4.90;1.00;;;19.90;99.90;;;;;;5091851;28;20035;-79
2022/09/14 10:19:32;;;;;;;3.85;1.00;;;20.00;99.90;;;;;;5088394;28;20036;-79
2022/09/14 10:22:26;;;;;;;4.50;0.75;;;20.00;99.90;;;;;;5080249;28;20046;-78
2022/09/14 10:25:21;;;;;;;5.90;1.27;;;20.00;99.90;;;;;;5088446;28;20051;-78
2022/09/14 10:27:48;;;;;;;5.50;0.98;;;20.00;99.90;;;;;;5075862;28;20460;-78
2022/09/14 10:30:19;;;;;;;8.00;1.50;;;19.90;99.90;;;;;;5086661;28;20047;-78
2022/09/14 10:32:51;;;;;;;7.20;1.30;;;19.90;99.90;;;;;;5084589;28;20040;-78
2022/09/14 10:35:19;;;;;;;4.25;0.90;;;19.70;99.90;;;;;;5076259;28;20044;-79
2022/09/14 10:37:57;;;;;;;7.05;1.10;;;19.70;99.90;;;;;;5088765;28;20115;-78
2022/09/14 10:40:37;;;;;;;5.25;0.90;;;19.90;99.90;;;;;;5094443;28;20046;-78
2022/09/14 10:43:14;;;;;;;7.18;1.67;;;20.00;99.90;;;;;;5064260;28;20046;-79
2022/09/14 10:45:49;;;;;;;4.72;1.10;;;20.20;99.90;;;;;;5075220;28;20040;-78
2022/09/14 10:48:22;;;;;;;6.55;1.13;;;20.20;99.90;;;;;;5077950;28;20489;-78
2022/09/14 10:51:11;;;;;;;10.70;1.58;;;19.90;99.90;;;;;;5081831;28;20040;-78
2022/09/14 10:53:53;;;;;;;3.83;0.90;;;19.90;99.90;;;;;;5074333;28;20495;-77
2022/09/14 10:56:22;;;;;;;3.15;0.70;;;19.80;99.90;;;;;;5078645;28;20040;-78
2022/09/14 10:59:17;;;;;;;3.85;0.88;;;19.80;99.90;;;;;;5078701;28;20055;-77
2022/09/14 11:02:03;;;;;;;4.90;0.90;;;19.90;99.90;;;;;;5087866;28;20041;-77
2022/09/14 11:04:47;;;;;;;3.10;1.00;;;19.90;99.90;;;;;;5089432;28;20047;-77
2022/09/14 11:07:31;;;;;;;;;;;19.70;99.90;;;;;;5082816;28;20056;-77
2022/09/14 11:10:27;;;;;;;5.95;0.90;;;19.70;99.90;;;;;;5081277;28;19923;-78
2022/09/14 11:13:02;;;;;;;5.50;1.00;;;19.90;99.90;;;;;;5079907;28;20062;-78
2022/09/14 11:15:46;;;;;;;4.13;1.45;;;19.90;99.90;;;;;;5071502;28;20119;-77
2022/09/14 11:18:12;;;;;;;;;;;20.00;99.90;;;;;;5077679;28;20040;-78
2022/09/14 11:21:19;;;;;;;5.70;1.00;;;20.30;99.90;;;;;;5079206;28;19960;-78
2022/09/14 11:23:48;;;;;;;4.38;0.82;;;20.50;99.90;;;;;;5068511;28;20513;-78
2022/09/14 11:26:24;;;;;;;5.97;1.13;;;20.50;99.90;;;;;;5090185;28;20416;-77
2022/09/14 11:29:14;;;;;;;6.03;1.05;;;20.60;99.90;;;;;;5072526;28;20043;-77
2022/09/14 11:32:05;;;;;;;4.05;0.90;;;20.70;99.90;;;;;;5089749;28;20051;-77
2022/09/14 11:34:46;;;;;;;7.25;1.27;;;20.70;99.90;;;;;;5091593;28;20071;-78
2022/09/14 11:37:15;;;;;;;2.88;0.70;;;20.70;99.90;;;;;;5079792;28;20033;-77
2022/09/14 11:40:05;;;;;;;5.75;0.75;;;20.80;99.90;;;;;;5082540;28;20036;-78
2022/09/14 11:42:39;;;;;;;4.55;1.00;;;20.80;99.90;;;;;;5081257;28;20032;-77
2022/09/14 11:45:13;;;;;;;4.82;1.00;;;21.00;99.90;;;;;;5084415;28;20041;-77
2022/09/14 11:47:45;;;;;;;5.00;1.20;;;21.30;99.90;;;;;;5077321;28;20585;-77
2022/09/14 11:50:24;;;;;;;5.07;1.10;;;21.40;99.90;;;;;;5067921;28;20040;-77
2022/09/14 11:53:00;;;;;;;7.15;1.10;;;21.70;99.90;;;;;;5085953;28;20040;-78
2022/09/14 11:55:25;;;;;;;4.65;1.10;;;22.10;99.90;;;;;;5086444;28;20071;-77
2022/09/14 11:57:51;;;;;;;5.68;1.23;;;22.30;99.90;;;;;;5067488;28;20067;-77
